Time;durP1;ratioP1;P1;durP2;ratioP2;P2;SDS_P1;SDS_P2;PMS_P1;PMS_P2;Temp;Humidity;BMP_temperature;BMP_pressure;BME280_temperature;BME280_humidity;BME280_pressure;Samples;Min_cycle;Max_cycle;Signal;HPM_P1;HPM_P2
2024/02/15 00:00:11;;;;;;;0.00;0.00;;;27.30;37.90;;;;;;5011881;28;20225;-45
2024/02/15 00:02:43;;;;;;;0.00;0.00;;;27.40;37.80;;;;;;4992874;28;20654;-48
2024/02/15 00:05:14;;;;;;;0.00;0.00;;;27.40;37.80;;;;;;4992741;28;20197;-49
2024/02/15 00:07:48;;;;;;;0.00;0.00;;;27.50;37.90;;;;;;4993396;28;20213;-49
2024/02/15 00:10:19;;;;;;;0.00;0.00;;;27.50;37.90;;;;;;4999051;28;20201;-49
2024/02/15 00:12:52;;;;;;;0.00;0.00;;;27.50;37.90;;;;;;5008997;28;20215;-49
2024/02/15 00:15:23;;;;;;;0.00;0.00;;;27.60;37.90;;;;;;5011964;28;20661;-48
2024/02/15 00:17:54;;;;;;;0.00;0.00;;;27.60;37.90;;;;;;5011853;28;20197;-48
2024/02/15 00:20:24;;;;;;;0.00;0.00;;;27.60;37.90;;;;;;5012762;28;20197;-49
2024/02/15 00:22:57;;;;;;;0.00;0.00;;;27.60;37.90;;;;;;5012437;28;20197;-50
2024/02/15 00:25:28;;;;;;;0.00;0.00;;;27.70;37.90;;;;;;5012454;28;20331;-49
2024/02/15 00:28:00;;;;;;;0.00;0.00;;;27.70;37.90;;;;;;5012317;28;20207;-49
2024/02/15 00:30:31;;;;;;;0.00;0.00;;;27.70;37.90;;;;;;5011916;28;20228;-49
2024/02/15 00:33:02;;;;;;;0.00;0.00;;;27.70;37.90;;;;;;5011920;28;20615;-51
2024/02/15 00:35:33;;;;;;;0.00;0.00;;;27.80;37.90;;;;;;5011775;28;20197;-45
2024/02/15 00:38:06;;;;;;;0.00;0.00;;;27.80;37.90;;;;;;5011501;28;20373;-49
2024/02/15 00:40:37;;;;;;;0.00;0.00;;;27.80;37.90;;;;;;5011780;28;20208;-49
2024/02/15 00:43:08;;;;;;;0.00;0.00;;;27.80;37.90;;;;;;5012188;28;20688;-49
2024/02/15 00:45:39;;;;;;;0.00;0.00;;;27.80;37.90;;;;;;5012384;28;20193;-48
2024/02/15 00:48:10;;;;;;;0.00;0.00;;;27.90;37.90;;;;;;5012018;28;20244;-51
2024/02/15 00:50:41;;;;;;;0.00;0.00;;;27.90;37.90;;;;;;5011712;28;20263;-52
2024/02/15 00:53:13;;;;;;;0.00;0.00;;;27.90;37.80;;;;;;5011525;28;20192;-50
2024/02/15 00:55:44;;;;;;;0.00;0.00;;;27.90;37.70;;;;;;5011765;28;20591;-51
2024/02/15 00:58:15;;;;;;;0.00;0.00;;;28.00;37.70;;;;;;5011881;28;20228;-48
2024/02/15 01:00:45;;;;;;;0.00;0.00;;;28.00;37.60;;;;;;5012233;28;20200;-48
2024/02/15 01:03:18;;;;;;;0.00;0.00;;;28.00;37.60;;;;;;5011796;28;20209;-52
2024/02/15 01:05:48;;;;;;;0.00;0.00;;;28.10;37.60;;;;;;5010836;28;20189;-50
2024/02/15 01:08:21;;;;;;;0.00;0.00;;;28.10;37.50;;;;;;4995087;28;20212;-49
2024/02/15 01:10:53;;;;;;;0.00;0.00;;;28.10;37.40;;;;;;5011620;28;20258;-51
2024/02/15 01:13:24;;;;;;;0.00;0.00;;;28.10;37.40;;;;;;5011562;28;20658;-47
2024/02/15 01:15:55;;;;;;;0.00;0.00;;;28.20;37.40;;;;;;5011416;28;20201;-51
2024/02/15 01:18:26;;;;;;;0.00;0.00;;;28.20;37.50;;;;;;5011113;28;20685;-48
2024/02/15 01:20:57;;;;;;;0.00;0.00;;;28.30;37.50;;;;;;5011960;28;20200;-47
2024/02/15 01:23:30;;;;;;;0.00;0.00;;;28.20;37.50;;;;;;5011372;28;20196;-49
2024/02/15 01:26:01;;;;;;;0.00;0.00;;;28.30;37.50;;;;;;5011714;28;20653;-47
2024/02/15 01:28:32;;;;;;;0.00;0.00;;;28.30;37.50;;;;;;5011287;28;20224;-47
2024/02/15 01:31:02;;;;;;;0.00;0.00;;;28.30;37.50;;;;;;5011260;28;20232;-41
2024/02/15 01:33:33;;;;;;;0.00;0.00;;;28.30;37.50;;;;;;5011826;28;20197;-49
2024/02/15 01:36:04;;;;;;;0.00;0.00;;;28.40;37.60;;;;;;5011614;28;20204;-46
2024/02/15 01:38:36;;;;;;;0.00;0.00;;;28.40;37.50;;;;;;5010764;28;20224;-48
2024/02/15 01:41:08;;;;;;;0.00;0.00;;;28.40;37.50;;;;;;5011082;28;20567;-45
2024/02/15 01:43:40;;;;;;;0.00;0.00;;;28.40;37.50;;;;;;5011255;28;20200;-50
2024/02/15 01:46:12;;;;;;;0.00;0.00;;;28.40;37.40;;;;;;5010516;28;20200;-47
2024/02/15 01:48:44;;;;;;;0.00;0.00;;;28.50;37.30;;;;;;4991367;28;20229;-48
2024/02/15 01:51:18;;;;;;;0.00;0.00;;;28.50;37.10;;;;;;4991247;28;20217;-49
2024/02/15 01:53:52;;;;;;;0.00;0.00;;;28.50;37.00;;;;;;4989610;28;20201;-47
2024/02/15 01:56:25;;;;;;;0.00;0.00;;;28.50;37.00;;;;;;4990479;28;20201;-49
2024/02/15 01:58:55;;;;;;;0.00;0.00;;;28.60;37.00;;;;;;4991665;28;20221;-46
2024/02/15 02:01:26;;;;;;;0.00;0.00;;;28.60;36.90;;;;;;4991591;28;20209;-50
2024/02/15 02:03:58;;;;;;;0.00;0.00;;;28.60;36.90;;;;;;4994477;28;20202;-49
2024/02/15 02:06:29;;;;;;;0.00;0.00;;;28.60;36.90;;;;;;4991496;28;20207;-49
2024/02/15 02:09:02;;;;;;;0.00;0.00;;;28.70;36.90;;;;;;5007387;28;20275;-49
2024/02/15 02:11:33;;;;;;;0.00;0.00;;;28.70;36.90;;;;;;5011189;28;20207;-48
2024/02/15 02:14:04;;;;;;;0.00;0.00;;;28.70;36.90;;;;;;5011301;28;20200;-49
2024/02/15 02:16:35;;;;;;;0.00;0.00;;;28.70;37.00;;;;;;5011274;28;20197;-49
2024/02/15 02:19:08;;;;;;;0.00;0.00;;;28.70;37.00;;;;;;5011407;28;20235;-48
2024/02/15 02:21:40;;;;;;;0.00;0.00;;;28.70;37.10;;;;;;5014450;28;20244;-49
2024/02/15 02:24:18;;;;;;;0.00;0.00;;;28.70;37.10;;;;;;5014757;28;20343;-49
2024/02/15 02:26:51;;;;;;;0.00;0.00;;;28.70;37.10;;;;;;5014316;28;20216;-46
2024/02/15 02:29:22;;;;;;;0.00;0.00;;;28.70;37.00;;;;;;5013938;28;20217;-49
2024/02/15 02:31:53;;;;;;;0.00;0.00;;;28.70;37.00;;;;;;5014001;28;20207;-48
2024/02/15 02:34:24;;;;;;;0.00;0.00;;;28.60;37.00;;;;;;5014063;28;20201;-48
2024/02/15 02:36:55;;;;;;;0.00;0.00;;;28.70;37.10;;;;;;5013941;28;20197;-46
2024/02/15 02:39:31;;;;;;;0.00;0.00;;;28.70;37.10;;;;;;5013847;28;20232;-49
2024/02/15 02:42:04;;;;;;;0.00;0.00;;;28.70;37.00;;;;;;4995050;28;20198;-49
2024/02/15 02:44:34;;;;;;;0.00;0.00;;;28.60;36.90;;;;;;4994544;28;20203;-48
2024/02/15 02:47:05;;;;;;;0.00;0.00;;;28.70;36.90;;;;;;4994451;28;20201;-49
2024/02/15 02:49:37;;;;;;;0.00;0.00;;;28.70;36.90;;;;;;4994767;28;20214;-49
2024/02/15 02:52:08;;;;;;;0.00;0.00;;;28.70;36.90;;;;;;4994152;28;20198;-46
2024/02/15 02:54:39;;;;;;;0.00;0.00;;;28.70;36.90;;;;;;4994206;28;20204;-49
2024/02/15 02:57:12;;;;;;;0.00;0.00;;;28.70;36.90;;;;;;4994267;28;20202;-44
2024/02/15 02:59:42;;;;;;;0.00;0.00;;;28.70;36.80;;;;;;4994216;28;20597;-50
2024/02/15 03:02:13;;;;;;;0.00;0.00;;;28.70;36.80;;;;;;4994340;28;20201;-49
2024/02/15 03:04:44;;;;;;;0.00;0.00;;;28.70;36.80;;;;;;4994378;28;20220;-49
2024/02/15 03:07:17;;;;;;;0.00;0.00;;;28.70;36.80;;;;;;4995744;28;20650;-48
2024/02/15 03:09:47;;;;;;;0.00;0.00;;;28.70;36.80;;;;;;5013326;28;20724;-46
2024/02/15 03:12:20;;;;;;;0.00;0.00;;;28.70;36.80;;;;;;5013474;28;20204;-49
2024/02/15 03:14:51;;;;;;;0.00;0.00;;;28.70;36.60;;;;;;5013604;28;20205;-48
2024/02/15 03:17:24;;;;;;;0.00;0.00;;;28.70;36.50;;;;;;5013365;28;20197;-49
2024/02/15 03:19:55;;;;;;;0.00;0.00;;;28.70;36.50;;;;;;5013382;28;20236;-50
2024/02/15 03:22:27;;;;;;;0.00;0.00;;;28.60;36.40;;;;;;5012613;28;20444;-46
2024/02/15 03:24:58;;;;;;;0.00;0.00;;;28.60;36.30;;;;;;5012905;28;20263;-50
2024/02/15 03:27:30;;;;;;;0.00;0.00;;;28.60;36.20;;;;;;5012956;28;20193;-48
2024/02/15 03:30:01;;;;;;;0.00;0.00;;;28.60;36.30;;;;;;5013087;28;20696;-46
2024/02/15 03:32:32;;;;;;;0.00;0.00;;;28.60;36.40;;;;;;5013237;28;20220;-48
2024/02/15 03:35:03;;;;;;;0.00;0.00;;;28.60;36.50;;;;;;5013182;28;20192;-45
2024/02/15 03:37:36;;;;;;;0.00;0.00;;;28.50;36.40;;;;;;5012784;28;20208;-49
2024/02/15 03:40:08;;;;;;;0.00;0.00;;;28.60;36.50;;;;;;5011869;28;20256;-51
2024/02/15 03:42:41;;;;;;;0.00;0.00;;;28.60;36.50;;;;;;5013171;28;20193;-49
2024/02/15 03:45:12;;;;;;;0.00;0.00;;;28.60;36.60;;;;;;5012870;28;20205;-49
2024/02/15 03:47:43;;;;;;;0.00;0.00;;;28.60;36.60;;;;;;5012491;28;20244;-49
2024/02/15 03:50:14;;;;;;;0.00;0.00;;;28.50;36.60;;;;;;5013104;28;20213;-49
2024/02/15 03:52:45;;;;;;;0.00;0.00;;;28.50;36.50;;;;;;5013020;28;20197;-52
2024/02/15 03:55:16;;;;;;;0.00;0.00;;;28.50;36.50;;;;;;5013104;28;20196;-50
2024/02/15 03:57:49;;;;;;;0.00;0.00;;;28.50;36.50;;;;;;5013149;28;20247;-49
2024/02/15 04:00:20;;;;;;;0.00;0.00;;;28.50;36.50;;;;;;5012816;28;20260;-46
2024/02/15 04:02:51;;;;;;;0.00;0.00;;;28.50;36.40;;;;;;5012259;28;20201;-51
2024/02/15 04:05:23;;;;;;;0.00;0.00;;;28.50;36.30;;;;;;5009349;28;20216;-48
2024/02/15 04:07:54;;;;;;;0.00;0.00;;;28.50;36.30;;;;;;5001816;28;20681;-48
2024/02/15 04:10:25;;;;;;;0.00;0.00;;;28.50;36.80;;;;;;4999562;28;20240;-50
2024/02/15 04:12:58;;;;;;;0.00;0.00;;;28.40;36.10;;;;;;5009340;28;20243;-52
2024/02/15 04:15:28;;;;;;;0.00;0.00;;;28.40;36.10;;;;;;4993147;28;20197;-49
2024/02/15 04:17:59;;;;;;;0.00;0.00;;;28.40;36.00;;;;;;4992953;28;20204;-48
2024/02/15 04:20:30;;;;;;;0.00;0.00;;;28.40;36.00;;;;;;4992861;28;20222;-47
2024/02/15 04:23:01;;;;;;;0.00;0.00;;;28.40;36.10;;;;;;4993182;28;20197;-46
2024/02/15 04:25:33;;;;;;;0.00;0.00;;;28.40;36.10;;;;;;4993032;28;20197;-53
2024/02/15 04:28:08;;;;;;;0.00;0.00;;;28.40;36.20;;;;;;4992410;28;20653;-45
2024/02/15 04:30:40;;;;;;;0.00;0.00;;;28.40;36.20;;;;;;4993129;28;20201;-52
2024/02/15 04:33:11;;;;;;;0.00;0.00;;;28.30;36.20;;;;;;4992331;28;20201;-52
2024/02/15 04:35:42;;;;;;;0.00;0.00;;;28.30;36.20;;;;;;4992266;28;20627;-45
2024/02/15 04:38:12;;;;;;;0.00;0.00;;;28.30;36.30;;;;;;4992078;28;20217;-47
2024/02/15 04:40:43;;;;;;;0.00;0.00;;;28.30;36.30;;;;;;5000450;28;20229;-47
2024/02/15 04:43:16;;;;;;;0.00;0.00;;;28.30;36.30;;;;;;5011614;28;20700;-44
2024/02/15 04:45:46;;;;;;;0.00;0.00;;;28.20;36.20;;;;;;5011634;28;20208;-46
2024/02/15 04:48:19;;;;;;;0.00;0.00;;;28.20;36.20;;;;;;5011546;28;20224;-48
2024/02/15 04:50:49;;;;;;;0.00;0.00;;;28.20;36.10;;;;;;5011667;28;20649;-48
2024/02/15 04:53:21;;;;;;;0.00;0.00;;;28.20;36.10;;;;;;5011614;28;20205;-50
2024/02/15 04:55:51;;;;;;;0.00;0.00;;;28.20;36.00;;;;;;5011656;28;20204;-48
2024/02/15 04:58:26;;;;;;;0.00;0.00;;;28.20;35.90;;;;;;5009646;28;20580;-47
2024/02/15 05:00:59;;;;;;;0.00;0.00;;;28.20;35.90;;;;;;5011336;28;20224;-49
2024/02/15 05:03:30;;;;;;;0.00;0.00;;;28.10;35.80;;;;;;5011805;28;20192;-49
2024/02/15 05:06:00;;;;;;;0.00;0.00;;;28.10;35.80;;;;;;5011898;28;20684;-47
2024/02/15 05:08:31;;;;;;;0.00;0.00;;;28.10;35.80;;;;;;5012078;28;20902;-51
2024/02/15 05:11:04;;;;;;;0.00;0.00;;;28.10;35.80;;;;;;5011920;28;20251;-51
2024/02/15 05:13:36;;;;;;;0.00;0.00;;;28.10;35.80;;;;;;5010294;28;20257;-50
2024/02/15 05:16:08;;;;;;;0.00;0.00;;;28.00;35.70;;;;;;5011181;28;20240;-50
2024/02/15 05:18:39;;;;;;;0.00;0.00;;;28.00;35.70;;;;;;5011255;28;20412;-46
2024/02/15 05:21:11;;;;;;;0.00;0.00;;;28.00;35.80;;;;;;5011257;28;20264;-49
2024/02/15 05:23:43;;;;;;;0.00;0.00;;;28.00;35.80;;;;;;5011800;28;20258;-49
2024/02/15 05:26:16;;;;;;;0.00;0.00;;;28.00;35.90;;;;;;5011408;28;20223;-50
2024/02/15 05:28:48;;;;;;;0.00;0.00;;;28.00;35.90;;;;;;5011549;28;20209;-49
2024/02/15 05:31:20;;;;;;;0.00;0.00;;;27.90;35.80;;;;;;5011880;28;20207;-50
2024/02/15 05:33:51;;;;;;;0.00;0.00;;;27.90;35.80;;;;;;5011355;28;20197;-49
2024/02/15 05:36:23;;;;;;;0.00;0.00;;;28.00;35.90;;;;;;5011580;28;20581;-42
2024/02/15 05:38:55;;;;;;;0.00;0.00;;;27.90;35.80;;;;;;5010970;28;20251;-43
2024/02/15 05:41:26;;;;;;;0.00;0.00;;;27.90;35.80;;;;;;5010805;28;20233;-42
2024/02/15 05:43:59;;;;;;;0.00;0.00;;;27.90;35.80;;;;;;5010842;28;20207;-43
2024/02/15 05:46:30;;;;;;;0.00;0.00;;;27.90;35.80;;;;;;5011304;28;20255;-42
2024/02/15 05:49:02;;;;;;;0.00;0.00;;;27.90;35.80;;;;;;5011081;28;20324;-44
2024/02/15 05:51:33;;;;;;;0.00;0.00;;;27.90;35.80;;;;;;5012003;28;20688;-42
2024/02/15 05:54:04;;;;;;;0.00;0.00;;;27.80;35.70;;;;;;5014791;28;20197;-40
2024/02/15 05:56:35;;;;;;;0.00;0.00;;;27.80;35.70;;;;;;5015156;28;20205;-42
2024/02/15 05:59:10;;;;;;;0.00;0.00;;;27.80;35.70;;;;;;5003475;28;20217;-41
2024/02/15 06:01:41;;;;;;;0.00;0.00;;;27.80;35.60;;;;;;4995051;28;20221;-42
2024/02/15 06:04:12;;;;;;;0.00;0.00;;;27.80;35.70;;;;;;4995100;28;20685;-40
2024/02/15 06:06:43;;;;;;;0.00;0.00;;;27.80;35.70;;;;;;4995420;28;20612;-43
2024/02/15 06:09:14;;;;;;;0.00;0.00;;;27.80;35.70;;;;;;5008221;28;20549;-44
2024/02/15 06:11:45;;;;;;;0.00;0.00;;;27.70;35.70;;;;;;5014798;28;20676;-40
2024/02/15 06:14:17;;;;;;;0.00;0.00;;;27.70;35.80;;;;;;5015169;28;20291;-43
2024/02/15 06:16:48;;;;;;;0.00;0.00;;;27.70;35.80;;;;;;5014267;28;20203;-41
2024/02/15 06:19:19;;;;;;;0.00;0.00;;;27.70;35.80;;;;;;5014682;28;20213;-41
2024/02/15 06:21:49;;;;;;;0.00;0.00;;;27.70;35.90;;;;;;5014592;28;20697;-40
2024/02/15 06:24:20;;;;;;;0.00;0.00;;;27.70;35.90;;;;;;5011084;28;20188;-41
2024/02/15 06:26:53;;;;;;;0.00;0.00;;;27.70;35.90;;;;;;5014102;28;20204;-42
2024/02/15 06:40:40;;;;;;;0.00;0.00;;;27.60;35.90;;;;;;5014414;28;20594;-41
2024/02/15 06:43:11;;;;;;;0.00;0.00;;;27.60;36.00;;;;;;5013974;28;20572;-41
2024/02/15 06:45:46;;;;;;;0.00;0.00;;;27.60;36.00;;;;;;5013897;28;20244;-41
2024/02/15 06:48:17;;;;;;;0.00;0.00;;;27.60;36.00;;;;;;5013277;28;20248;-41
2024/02/15 06:50:51;;;;;;;0.00;0.00;;;27.60;35.90;;;;;;5012908;28;20196;-46
2024/02/15 06:53:22;;;;;;;0.00;0.00;;;27.50;35.90;;;;;;5013447;28;20193;-43
2024/02/15 06:55:53;;;;;;;0.00;0.00;;;27.50;35.80;;;;;;5014153;28;20207;-42
2024/02/15 06:58:23;;;;;;;0.00;0.00;;;27.50;35.80;;;;;;5014027;28;20229;-47
2024/02/15 07:00:57;;;;;;;0.00;0.00;;;27.50;35.80;;;;;;5013773;28;20319;-41
2024/02/15 07:03:29;;;;;;;0.00;0.00;;;27.50;35.80;;;;;;5013062;28;20209;-42
2024/02/15 07:06:00;;;;;;;0.00;0.00;;;27.50;35.90;;;;;;5013748;28;20197;-41
2024/02/15 07:08:30;;;;;;;0.00;0.00;;;27.50;35.90;;;;;;5012703;28;20228;-45
2024/02/15 07:11:02;;;;;;;0.00;0.00;;;27.40;35.80;;;;;;5013752;28;20200;-43
2024/02/15 07:13:32;;;;;;;0.00;0.00;;;27.50;35.90;;;;;;5013726;28;20728;-44
2024/02/15 07:16:05;;;;;;;0.00;0.00;;;27.40;35.90;;;;;;5013689;28;20192;-41
2024/02/15 07:18:36;;;;;;;0.00;0.00;;;27.40;35.90;;;;;;5013359;28;20235;-41
2024/02/15 07:21:11;;;;;;;0.00;0.00;;;27.40;35.90;;;;;;5013284;28;20229;-41
2024/02/15 07:23:41;;;;;;;0.00;0.00;;;27.40;35.90;;;;;;5013296;28;20203;-43
2024/02/15 07:26:14;;;;;;;0.00;0.00;;;27.40;35.90;;;;;;5013392;28;20207;-43
2024/02/15 07:28:46;;;;;;;0.00;0.00;;;27.40;36.00;;;;;;5013088;28;20217;-40
2024/02/15 07:31:18;;;;;;;0.00;0.00;;;27.40;36.00;;;;;;5013126;28;20203;-41
2024/02/15 07:33:49;;;;;;;0.00;0.00;;;27.40;36.00;;;;;;5012942;28;20201;-44
2024/02/15 07:36:23;;;;;;;0.00;0.00;;;27.30;35.80;;;;;;5012589;28;20208;-42
2024/02/15 07:38:57;;;;;;;0.00;0.00;;;27.30;35.80;;;;;;5012650;28;20221;-43
2024/02/15 07:41:28;;;;;;;0.00;0.00;;;27.30;35.80;;;;;;5012547;28;20231;-40
2024/02/15 07:43:59;;;;;;;0.00;0.00;;;27.30;35.80;;;;;;5012822;28;20197;-41
2024/02/15 07:46:31;;;;;;;0.00;0.00;;;27.30;35.80;;;;;;5013113;28;20204;-41
2024/02/15 07:49:02;;;;;;;0.00;0.00;;;27.30;35.90;;;;;;5012676;28;20209;-41
2024/02/15 07:51:33;;;;;;;0.00;0.00;;;27.20;35.80;;;;;;5012264;28;20203;-41
2024/02/15 07:54:04;;;;;;;0.00;0.00;;;27.20;35.90;;;;;;5012476;28;20200;-40
2024/02/15 07:56:35;;;;;;;0.00;0.00;;;27.20;35.90;;;;;;5009696;28;20652;-40
2024/02/15 07:59:05;;;;;;;0.00;0.00;;;27.20;35.90;;;;;;5012455;28;20213;-41
2024/02/15 08:01:38;;;;;;;0.00;0.00;;;27.20;36.00;;;;;;5012650;28;20228;-41
2024/02/15 08:04:09;;;;;;;0.00;0.00;;;27.20;36.00;;;;;;5012990;28;20271;-49
2024/02/15 08:06:41;;;;;;;0.00;0.00;;;27.20;36.10;;;;;;5012237;28;20271;-43
2024/02/15 08:09:13;;;;;;;0.00;0.00;;;27.20;36.10;;;;;;5012275;28;20217;-43
2024/02/15 08:11:44;;;;;;;0.00;0.00;;;27.10;36.10;;;;;;4999333;28;20197;-49
2024/02/15 08:14:15;;;;;;;0.00;0.00;;;27.10;36.10;;;;;;4992110;28;20201;-45
2024/02/15 08:16:47;;;;;;;0.00;0.00;;;27.10;36.20;;;;;;4992739;28;20205;-44
2024/02/15 08:19:18;;;;;;;0.00;0.00;;;27.10;36.10;;;;;;4992559;28;20220;-41
2024/02/15 08:21:50;;;;;;;0.00;0.00;;;27.10;36.20;;;;;;4991714;28;20232;-40
2024/02/15 08:24:21;;;;;;;0.00;0.00;;;27.10;36.20;;;;;;4992656;28;20197;-41
2024/02/15 08:26:52;;;;;;;0.00;0.00;;;27.10;36.20;;;;;;4992309;28;20208;-43
2024/02/15 08:29:23;;;;;;;0.00;0.00;;;27.10;36.20;;;;;;4992596;28;20222;-44
2024/02/15 08:31:55;;;;;;;0.00;0.00;;;27.10;36.20;;;;;;4994953;28;20197;-46
2024/02/15 08:34:26;;;;;;;0.00;0.00;;;27.00;36.10;;;;;;4992670;28;20201;-45
2024/02/15 08:36:58;;;;;;;0.00;0.00;;;27.10;36.20;;;;;;4991856;28;20200;-45
2024/02/15 08:39:28;;;;;;;0.00;0.00;;;27.00;36.20;;;;;;4992339;28;20222;-46
2024/02/15 08:41:59;;;;;;;0.00;0.00;;;27.00;36.30;;;;;;5012134;28;20232;-50
2024/02/15 08:44:30;;;;;;;0.00;0.00;;;27.00;36.30;;;;;;5011905;28;20654;-48
2024/02/15 08:47:04;;;;;;;0.00;0.00;;;27.00;36.30;;;;;;5011848;28;20720;-46
2024/02/15 08:49:35;;;;;;;0.00;0.00;;;27.00;36.30;;;;;;5001781;28;20220;-46
2024/02/15 08:52:07;;;;;;;0.00;0.00;;;27.00;36.40;;;;;;4991936;28;20197;-41
2024/02/15 08:54:39;;;;;;;0.00;0.00;;;27.00;36.40;;;;;;4992611;28;20201;-42
2024/02/15 08:57:11;;;;;;;0.00;0.00;;;27.00;36.40;;;;;;4992311;28;20197;-45
2024/02/15 08:59:42;;;;;;;0.00;0.00;;;27.00;36.40;;;;;;4993916;28;20221;-48
2024/02/15 09:02:15;;;;;;;0.00;0.00;;;27.00;36.50;;;;;;5011870;28;20231;-46
2024/02/15 09:04:46;;;;;;;0.00;0.00;;;26.90;36.40;;;;;;5012243;28;20255;-47
2024/02/15 09:07:17;;;;;;;0.00;0.00;;;26.90;36.50;;;;;;5010879;28;20657;-50
2024/02/15 09:09:47;;;;;;;0.00;0.00;;;26.90;36.50;;;;;;5011281;28;20228;-42
2024/02/15 09:12:18;;;;;;;0.00;0.00;;;26.90;36.50;;;;;;5011693;28;20197;-50
2024/02/15 09:14:49;;;;;;;0.00;0.00;;;26.90;36.50;;;;;;5011910;28;20207;-50
2024/02/15 09:17:21;;;;;;;0.00;0.00;;;26.90;36.50;;;;;;5011874;28;20568;-50
2024/02/15 09:19:52;;;;;;;0.00;0.00;;;26.80;36.50;;;;;;5011603;28;20243;-42
2024/02/15 09:22:23;;;;;;;0.00;0.00;;;26.90;36.50;;;;;;5010588;28;20224;-50
2024/02/15 09:24:53;;;;;;;0.00;0.00;;;26.90;36.50;;;;;;5009352;28;20192;-49
2024/02/15 09:27:24;;;;;;;0.00;0.00;;;26.80;36.50;;;;;;5002476;28;20942;-40
2024/02/15 09:29:55;;;;;;;0.00;0.00;;;26.80;36.50;;;;;;4988589;28;20221;-45
2024/02/15 09:32:28;;;;;;;0.00;0.00;;;26.80;36.50;;;;;;4988182;28;20248;-41
2024/02/15 09:34:58;;;;;;;0.00;0.00;;;26.80;36.60;;;;;;4988528;28;20258;-42
2024/02/15 09:37:30;;;;;;;0.00;0.00;;;26.80;36.60;;;;;;4987258;28;20205;-40
2024/02/15 09:40:06;;;;;;;0.00;0.00;;;26.80;36.60;;;;;;5007933;28;20252;-41
2024/02/15 09:42:36;;;;;;;0.00;0.00;;;26.70;36.60;;;;;;5006411;28;20232;-48
2024/02/15 09:45:08;;;;;;;0.00;0.00;;;26.70;36.60;;;;;;5007783;28;20212;-48
2024/02/15 09:47:42;;;;;;;0.00;0.00;;;26.70;36.60;;;;;;5007167;28;20687;-42
2024/02/15 09:50:14;;;;;;;0.00;0.00;;;26.70;36.70;;;;;;5006026;28;20306;-46
2024/02/15 09:52:50;;;;;;;0.00;0.00;;;26.70;36.70;;;;;;5008402;28;20204;-50
2024/02/15 09:55:22;;;;;;;0.00;0.00;;;26.70;36.70;;;;;;5009717;28;20224;-45
2024/02/15 09:57:54;;;;;;;0.00;0.00;;;26.70;37.30;;;;;;5006469;28;20208;-47
2024/02/15 10:00:25;;;;;;;0.00;0.00;;;26.70;36.70;;;;;;4989950;28;20205;-47
2024/02/15 10:02:57;;;;;;;0.00;0.00;;;26.70;36.70;;;;;;4999168;28;20229;-47
2024/02/15 10:05:28;;;;;;;0.00;0.00;;;26.70;36.80;;;;;;5007497;28;20197;-45
2024/02/15 10:08:00;;;;;;;0.00;0.00;;;26.70;36.80;;;;;;5021361;28;20204;-40
2024/02/15 10:10:33;;;;;;;0.00;0.00;;;26.60;36.80;;;;;;5019866;28;20579;-43
2024/02/15 10:13:04;;;;;;;0.00;0.00;;;26.60;36.80;;;;;;5007516;28;20300;-47
2024/02/15 10:15:36;;;;;;;0.00;0.00;;;26.60;36.90;;;;;;5006934;28;20552;-46
2024/02/15 10:18:11;;;;;;;0.00;0.00;;;26.60;37.00;;;;;;5007688;28;20200;-49
2024/02/15 10:20:44;;;;;;;0.00;0.00;;;26.60;37.10;;;;;;5008216;28;20211;-47
2024/02/15 10:23:17;;;;;;;0.00;0.00;;;26.60;37.10;;;;;;5006871;28;20303;-49
2024/02/15 10:25:50;;;;;;;0.00;0.00;;;26.60;37.20;;;;;;5007660;28;20300;-46
2024/02/15 10:28:25;;;;;;;0.00;0.00;;;26.50;37.20;;;;;;5007366;28;20224;-48
2024/02/15 10:30:56;;;;;;;0.00;0.00;;;26.50;37.30;;;;;;5007480;28;20201;-48
2024/02/15 10:33:31;;;;;;;0.00;0.00;;;26.50;37.40;;;;;;5020982;28;20656;-47
2024/02/15 10:36:10;;;;;;;0.00;0.00;;;26.50;37.50;;;;;;5012282;28;20198;-49
2024/02/15 10:38:41;;;;;;;0.00;0.00;;;26.50;37.50;;;;;;4989265;28;20299;-50
2024/02/15 10:41:12;;;;;;;0.00;0.00;;;26.50;37.50;;;;;;5004088;28;20207;-49
2024/02/15 10:43:43;;;;;;;0.00;0.00;;;26.50;37.60;;;;;;5010223;28;20262;-52
2024/02/15 10:46:17;;;;;;;0.00;0.00;;;26.50;37.70;;;;;;5028529;28;20234;-49
2024/02/15 10:48:50;;;;;;;0.00;0.00;;;26.50;37.70;;;;;;5030911;28;20220;-48
2024/02/15 10:51:21;;;;;;;0.00;0.00;;;26.50;37.80;;;;;;5030140;28;20196;-46
2024/02/15 10:54:03;;;;;;;0.00;0.00;;;26.40;37.80;;;;;;5029353;28;20211;-50
2024/02/15 10:56:40;;;;;;;0.00;0.00;;;26.40;37.80;;;;;;5025585;28;20610;-48
2024/02/15 10:59:18;;;;;;;0.00;0.00;;;26.40;37.80;;;;;;5020464;28;20799;-48
2024/02/15 11:01:52;;;;;;;0.00;0.00;;;26.40;37.90;;;;;;5029179;28;20220;-52
2024/02/15 11:04:31;;;;;;;0.00;0.00;;;26.40;37.90;;;;;;5029710;28;20204;-46
2024/02/15 11:07:03;;;;;;;0.00;0.00;;;26.40;38.00;;;;;;5029806;28;20204;-49
2024/02/15 11:09:34;;;;;;;0.00;0.00;;;26.40;38.00;;;;;;5020455;28;20248;-49
2024/02/15 11:12:05;;;;;;;0.00;0.00;;;26.30;38.10;;;;;;5009534;28;20200;-49
2024/02/15 11:14:37;;;;;;;0.00;0.00;;;26.30;38.30;;;;;;5029945;28;20226;-49
2024/02/15 11:17:09;;;;;;;0.00;0.00;;;26.30;38.10;;;;;;5019880;28;20227;-49
2024/02/15 11:19:48;;;;;;;0.00;0.00;;;26.30;38.10;;;;;;5009418;28;20743;-47
2024/02/15 11:22:19;;;;;;;0.00;0.00;;;26.20;38.10;;;;;;5009862;28;20220;-50
2024/02/15 11:24:51;;;;;;;0.00;0.00;;;26.20;38.10;;;;;;5009033;28;20201;-49
2024/02/15 11:27:40;;;;;;;0.00;0.00;;;26.20;38.20;;;;;;4990430;28;20202;-49
2024/02/15 11:30:12;;;;;;;0.00;0.00;;;26.20;38.30;;;;;;4990129;28;20712;-49
2024/02/15 11:32:47;;;;;;;0.00;0.00;;;26.20;38.20;;;;;;4989308;28;20682;-49
2024/02/15 11:35:22;;;;;;;0.00;0.00;;;26.20;38.40;;;;;;4989559;28;20931;-48
2024/02/15 11:38:09;;;;;;;0.00;0.00;;;26.20;38.40;;;;;;5002920;28;20203;-46
2024/02/15 11:41:08;;;;;;;0.00;0.00;;;26.20;38.40;;;;;;5014607;28;20211;-46
2024/02/15 11:43:58;;;;;;;0.00;0.00;;;26.10;38.30;;;;;;4979681;28;20231;-44
2024/02/15 11:46:34;;;;;;;0.00;0.00;;;26.10;38.30;;;;;;5013308;28;20247;-44
2024/02/15 11:49:05;;;;;;;0.00;0.00;;;26.10;38.40;;;;;;5012529;28;20223;-50
2024/02/15 11:51:42;;;;;;;0.00;0.00;;;26.10;38.40;;;;;;5004171;28;20243;-46
2024/02/15 11:54:13;;;;;;;0.00;0.00;;;26.00;38.40;;;;;;5001545;28;20276;-50
2024/02/15 11:57:09;;;;;;;0.00;0.00;;;26.00;38.50;;;;;;5002987;28;20189;-49
2024/02/15 11:59:53;;;;;;;0.00;0.00;;;26.00;38.50;;;;;;5003976;28;20235;-47
2024/02/15 12:19:10;;;;;;;0.00;0.00;;;25.80;38.70;;;;;;5003493;28;20251;-46
2024/02/15 12:21:42;;;;;;;0.00;0.00;;;25.80;38.70;;;;;;5002293;28;20189;-44
2024/02/15 12:24:17;;;;;;;0.00;0.00;;;25.80;38.80;;;;;;5001133;28;20186;-45
2024/02/15 12:26:47;;;;;;;0.00;0.00;;;25.80;38.90;;;;;;5000988;28;20188;-47
2024/02/15 12:29:21;;;;;;;0.00;0.00;;;25.70;39.40;;;;;;5001902;28;20460;-42
2024/02/15 12:31:52;;;;;;;0.00;0.00;;;25.80;38.90;;;;;;5001172;28;20190;-50
2024/02/15 12:34:24;;;;;;;0.00;0.00;;;25.70;38.80;;;;;;5001835;28;20196;-44
2024/02/15 12:37:09;;;;;;;0.00;0.00;;;25.70;38.90;;;;;;5001384;28;20208;-42
2024/02/15 12:39:42;;;;;;;0.00;0.00;;;25.70;38.90;;;;;;5001263;28;20205;-43
2024/02/15 12:42:13;;;;;;;0.00;0.00;;;25.70;38.90;;;;;;5000847;28;20219;-48
2024/02/15 12:44:48;;;;;;;0.00;0.00;;;25.70;39.00;;;;;;5001966;28;20564;-46
2024/02/15 12:47:25;;;;;;;0.00;0.00;;;25.60;38.90;;;;;;5001478;28;20313;-45
2024/02/15 12:49:56;;;;;;;0.00;0.00;;;25.60;39.00;;;;;;5001272;28;20209;-42
2024/02/15 12:52:43;;;;;;;0.03;0.03;;;25.60;39.00;;;;;;5000899;28;20197;-45
2024/02/15 12:55:20;;;;;;;0.00;0.00;;;25.60;39.10;;;;;;5000333;28;20189;-46
2024/02/15 12:57:52;;;;;;;0.00;0.00;;;25.60;39.10;;;;;;4992143;28;20197;-47
2024/02/15 13:00:28;;;;;;;0.10;0.10;;;25.50;39.00;;;;;;4991140;28;20201;-45
2024/02/15 13:03:03;;;;;;;0.00;0.00;;;25.50;39.10;;;;;;5002232;28;20308;-46
2024/02/15 13:05:34;;;;;;;0.00;0.00;;;25.50;39.10;;;;;;5011724;28;20580;-48
2024/02/15 13:08:05;;;;;;;0.00;0.00;;;25.50;39.20;;;;;;5011565;28;20201;-42
2024/02/15 13:10:38;;;;;;;0.00;0.00;;;25.50;39.20;;;;;;5011539;28;20197;-46
2024/02/15 13:13:09;;;;;;;0.00;0.00;;;25.50;39.90;;;;;;5011393;28;20203;-45
2024/02/15 13:15:40;;;;;;;0.00;0.00;;;25.40;39.20;;;;;;5011448;28;20246;-48
2024/02/15 13:18:13;;;;;;;0.00;0.00;;;25.40;39.20;;;;;;5011660;28;20193;-43
2024/02/15 13:20:44;;;;;;;0.00;0.00;;;25.40;39.20;;;;;;5011608;28;20255;-48
2024/02/15 13:23:21;;;;;;;0.00;0.00;;;25.40;39.20;;;;;;5011617;28;20268;-46
2024/02/15 13:25:56;;;;;;;0.00;0.00;;;25.40;39.20;;;;;;5011815;28;20232;-44
2024/02/15 13:28:27;;;;;;;0.00;0.00;;;25.30;39.20;;;;;;5012420;28;20238;-47
2024/02/15 13:30:58;;;;;;;0.08;0.08;;;25.30;39.20;;;;;;5011632;28;20205;-45
2024/02/15 13:33:31;;;;;;;0.00;0.00;;;25.30;39.30;;;;;;5011697;28;20573;-46
2024/02/15 13:36:02;;;;;;;0.00;0.00;;;25.30;39.30;;;;;;5011328;28;20204;-44
2024/02/15 13:38:32;;;;;;;0.00;0.00;;;25.30;39.30;;;;;;5010829;28;20212;-48
2024/02/15 13:41:05;;;;;;;0.00;0.00;;;25.30;39.30;;;;;;5011415;28;20201;-47